PWSweather.com
Personal Weather Stations
Station Observations

AwhituWaiuku, CA 268400

Lat: -37.058, Lon: -174.6346

Elevation: 250

Station Type: Personal

http://www.weather-display.com/windy/gb/grahamsbeach.htm

High Low Average
Temperature 64.4°F18.0°F 53.0°F11.7°F 58.1°F14.5°F
Dew Point 60.1°F15.6°F 46.6°F8.1°F 52.9°F11.6°F
Winds 54.1 mph W87.1 mph W 24.2 mph 38.9 mph 35.0 mph 56.3 mph
Wind Gusts 63.3 mph101.9 mph 29.9 mph48.1 mph 42.8 mph68.9 mph
Humidity 94% 72% 83%
Pressure 29.66 in1004.40 in 29.39 in995.30 in -
Precipitation 0.30 in7.60 in - -
Hour Temp Dew Point Humidity Winds Wind Gusts Pressure Precip Precip Rate Daily Precip Total
12:00 AM 63.4°F17.4°C 59.8°F15.4°C 88% 36.8 mph WNW59.2 kmh WNW 44.9 mph72.3 kmh 29.47 in998.0 mb - 0.00 in0.0 mm 0.00 in0.0 mm
12:30 AM 64.2°F17.9°C 59.9°F15.5°C 86% 41.4 mph WNW66.6 kmh WNW 63.3 mph101.9 kmh 29.43 in996.6 mb - 0.00 in0.0 mm 0.00 in0.0 mm
01:00 AM 64.4°F18.0°C 60.1°F15.6°C 86% 47.2 mph NW76.0 kmh NW 57.5 mph92.5 kmh 29.43 in996.6 mb - 0.00 in0.0 mm 0.00 in0.0 mm
01:30 AM 64.3°F17.9°C 60.0°F15.6°C 86% 39.1 mph WNW62.9 kmh WNW 55.2 mph88.8 kmh 29.40 in995.6 mb - 0.00 in0.0 mm 0.00 in0.0 mm
02:00 AM 63.1°F17.3°C 60.1°F15.6°C 90% 39.1 mph WNW62.9 kmh WNW 49.5 mph79.7 kmh 29.39 in995.3 mb - 0.04 in1.0 mm 0.04 in1.0 mm
02:30 AM 62.1°F16.7°C 60.1°F15.6°C 93% 47.2 mph WNW76.0 kmh WNW 61.0 mph98.2 kmh 29.39 in995.3 mb - 0.12 in3.0 mm 0.15 in3.8 mm
03:00 AM 61.6°F16.4°C 59.5°F15.3°C 93% 41.4 mph WNW66.6 kmh WNW 57.5 mph92.5 kmh 29.40 in995.6 mb - 0.03 in0.8 mm 0.18 in4.6 mm
03:30 AM 61.1°F16.2°C 59.1°F15.1°C 93% 40.3 mph WNW64.9 kmh WNW 52.9 mph85.1 kmh 29.39 in995.3 mb - 0.01 in0.3 mm 0.19 in4.8 mm
04:00 AM 60.9°F16.1°C 59.2°F15.1°C 94% 39.1 mph WNW62.9 kmh WNW 49.5 mph79.7 kmh 29.41 in995.9 mb - 0.01 in0.3 mm 0.20 in5.1 mm
04:30 AM 60.5°F15.8°C 58.8°F14.9°C 94% 35.7 mph WNW57.5 kmh WNW 52.9 mph85.1 kmh 29.40 in995.6 mb - 0.01 in0.3 mm 0.21 in5.3 mm
05:00 AM 59.5°F15.3°C 57.7°F14.3°C 94% 36.8 mph WNW59.2 kmh WNW 41.4 mph66.6 kmh 29.40 in995.6 mb - 0.01 in0.3 mm 0.22 in5.6 mm
05:30 AM 59.7°F15.4°C 57.7°F14.3°C 93% 35.7 mph WNW57.5 kmh WNW 42.6 mph68.6 kmh 29.40 in995.6 mb - 0.00 in0.0 mm 0.22 in5.6 mm
06:00 AM 59.0°F15.0°C 56.7°F13.7°C 92% 28.8 mph WNW46.3 kmh WNW 35.7 mph57.5 kmh 29.40 in995.6 mb - 0.00 in0.0 mm 0.22 in5.6 mm
06:30 AM 59.2°F15.1°C 57.2°F14.0°C 93% 27.6 mph WNW44.4 kmh WNW 32.2 mph51.8 kmh 29.42 in996.3 mb - 0.00 in0.0 mm 0.22 in5.6 mm
07:00 AM 57.8°F14.3°C 54.9°F12.7°C 90% 34.5 mph W55.5 kmh W 39.1 mph62.9 kmh 29.42 in996.3 mb - 0.00 in0.0 mm 0.22 in5.6 mm
07:30 AM 57.5°F14.2°C 54.0°F12.2°C 88% 31.1 mph W50.1 kmh W 33.4 mph53.8 kmh 29.45 in997.3 mb - 0.00 in0.0 mm 0.22 in5.6 mm
08:00 AM 57.7°F14.3°C 54.2°F12.3°C 88% 32.2 mph W51.8 kmh W 34.5 mph55.5 kmh 29.46 in997.6 mb - 0.00 in0.0 mm 0.22 in5.6 mm
08:30 AM 58.2°F14.6°C 53.4°F11.9°C 84% 31.1 mph W50.1 kmh W 46.0 mph74.0 kmh 29.47 in998.0 mb - 0.00 in0.0 mm 0.22 in5.6 mm
09:00 AM 58.9°F14.9°C 53.4°F11.9°C 82% 33.4 mph W53.8 kmh W 44.9 mph72.3 kmh 29.47 in998.0 mb - 0.00 in0.0 mm 0.22 in5.6 mm
09:30 AM 56.2°F13.4°C 53.0°F11.7°C 89% 28.8 mph W46.3 kmh W 34.5 mph55.5 kmh 29.49 in998.6 mb - 0.00 in0.0 mm 0.22 in5.6 mm
10:00 AM 58.9°F14.9°C 53.7°F12.1°C 83% 32.2 mph W51.8 kmh W 40.3 mph64.9 kmh 29.50 in999.0 mb - 0.00 in0.0 mm 0.22 in5.6 mm
10:30 AM 59.7°F15.4°C 53.5°F11.9°C 80% 31.1 mph W50.1 kmh W 35.7 mph57.5 kmh 29.50 in999.0 mb - 0.00 in0.0 mm 0.22 in5.6 mm
11:00 AM 60.4°F15.8°C 53.2°F11.8°C 77% 33.4 mph W53.8 kmh W 38.0 mph61.2 kmh 29.50 in999.0 mb - 0.00 in0.0 mm 0.22 in5.6 mm
11:30 AM 60.9°F16.1°C 53.2°F11.8°C 76% 32.2 mph W51.8 kmh W 48.3 mph77.7 kmh 29.50 in999.0 mb - 0.00 in0.0 mm 0.22 in5.6 mm
12:00 PM 60.5°F15.8°C 52.1°F11.2°C 74% 28.8 mph W46.3 kmh W 32.2 mph51.8 kmh 29.50 in999.0 mb - 0.00 in0.0 mm 0.22 in5.6 mm
12:30 PM 59.2°F15.1°C 51.6°F10.9°C 76% 33.4 mph W53.8 kmh W 36.8 mph59.2 kmh 29.49 in998.6 mb - 0.00 in0.0 mm 0.22 in5.6 mm
01:00 PM 54.8°F12.7°C 51.6°F10.9°C 89% 29.9 mph W48.1 kmh W 39.1 mph62.9 kmh 29.50 in999.0 mb - 0.05 in1.3 mm 0.27 in6.9 mm
01:30 PM 56.1°F13.4°C 52.6°F11.4°C 88% 25.3 mph W40.7 kmh W 31.1 mph50.1 kmh 29.50 in999.0 mb - 0.00 in0.0 mm 0.27 in6.9 mm
02:00 PM 54.3°F12.4°C 48.6°F9.2°C 81% 54.1 mph W87.1 kmh W 62.1 mph99.9 kmh 29.50 in999.0 mb - 0.01 in0.3 mm 0.27 in6.9 mm
02:30 PM 56.4°F13.6°C 50.0°F10.0°C 79% 40.3 mph W64.9 kmh W 41.4 mph66.6 kmh 29.51 in999.3 mb - 0.01 in0.3 mm 0.28 in7.1 mm
03:00 PM 56.1°F13.4°C 48.3°F9.1°C 75% 44.9 mph WSW72.3 kmh WSW 49.5 mph79.7 kmh 29.51 in999.3 mb - 0.00 in0.0 mm 0.28 in7.1 mm
03:30 PM 57.1°F13.9°C 48.5°F9.2°C 73% 38.0 mph W61.2 kmh W 46.0 mph74.0 kmh 29.52 in999.7 mb - 0.00 in0.0 mm 0.28 in7.1 mm
04:00 PM 56.6°F13.7°C 48.8°F9.3°C 75% 43.7 mph W70.3 kmh W 49.5 mph79.7 kmh 29.53 in1000.0 mb - 0.00 in0.0 mm 0.28 in7.1 mm
04:30 PM 56.2°F13.4°C 49.1°F9.5°C 77% 38.0 mph WSW61.2 kmh WSW 41.4 mph66.6 kmh 29.54 in1000.3 mb - 0.00 in0.0 mm 0.28 in7.1 mm
05:00 PM 55.5°F13.1°C 48.8°F9.3°C 78% 35.7 mph W57.5 kmh W 41.4 mph66.6 kmh 29.55 in1000.7 mb - 0.00 in0.0 mm 0.28 in7.1 mm
05:30 PM 55.1°F12.8°C 47.7°F8.7°C 76% 35.7 mph WSW57.5 kmh WSW 46.0 mph74.0 kmh 29.56 in1001.0 mb - 0.00 in0.0 mm 0.28 in7.1 mm
06:00 PM 55.5°F13.1°C 47.0°F8.3°C 73% 33.4 mph WSW53.8 kmh WSW 40.3 mph64.9 kmh 29.57 in1001.4 mb - 0.00 in0.0 mm 0.28 in7.1 mm
06:30 PM 55.7°F13.2°C 48.9°F9.4°C 78% 26.5 mph W42.6 kmh W 33.4 mph53.8 kmh 29.58 in1001.7 mb - 0.00 in0.0 mm 0.28 in7.1 mm
07:00 PM 55.7°F13.2°C 49.3°F9.6°C 79% 26.5 mph WSW42.6 kmh WSW 36.8 mph59.2 kmh 29.59 in1002.0 mb - 0.00 in0.0 mm 0.28 in7.1 mm
07:30 PM 55.6°F13.1°C 48.2°F9.0°C 76% 35.7 mph WSW57.5 kmh WSW 41.4 mph66.6 kmh 29.59 in1002.0 mb - 0.00 in0.0 mm 0.28 in7.1 mm
08:00 PM 55.7°F13.2°C 48.9°F9.4°C 78% 25.3 mph W40.7 kmh W 29.9 mph48.1 kmh 29.61 in1002.7 mb - 0.00 in0.0 mm 0.28 in7.1 mm
08:30 PM 55.4°F13.0°C 48.6°F9.2°C 78% 31.1 mph WSW50.1 kmh WSW 34.5 mph55.5 kmh 29.62 in1003.0 mb - 0.00 in0.0 mm 0.28 in7.1 mm
09:00 PM 55.7°F13.2°C 48.2°F9.0°C 76% 35.7 mph W57.5 kmh W 41.4 mph66.6 kmh 29.62 in1003.0 mb - 0.00 in0.0 mm 0.28 in7.1 mm
09:30 PM 54.4°F12.4°C 49.3°F9.6°C 83% 24.2 mph WSW38.9 kmh WSW 31.1 mph50.1 kmh 29.64 in1003.7 mb - 0.00 in0.0 mm 0.28 in7.1 mm
10:00 PM 53.0°F11.7°C 47.3°F8.5°C 81% 26.5 mph SW42.6 kmh SW 29.9 mph48.1 kmh 29.65 in1004.1 mb - 0.00 in0.0 mm 0.28 in7.1 mm
10:30 PM 54.7°F12.6°C 48.3°F9.1°C 79% 40.3 mph W64.9 kmh W 46.0 mph74.0 kmh 29.64 in1003.7 mb - 0.00 in0.0 mm 0.28 in7.1 mm
11:00 PM 55.8°F13.2°C 49.7°F9.8°C 80% 33.4 mph WSW53.8 kmh WSW 39.1 mph62.9 kmh 29.65 in1004.1 mb - 0.00 in0.0 mm 0.28 in7.1 mm
11:30 PM 55.5°F13.1°C 46.6°F8.1°C 72% 38.0 mph WSW61.2 kmh WSW 42.6 mph68.6 kmh 29.66 in1004.4 mb - 0.00 in0.0 mm 0.28 in7.1 mm